Time;durP1;ratioP1;P1;durP2;ratioP2;P2;SDS_P1;SDS_P2;PMS_P1;PMS_P2;Temp;Humidity;BMP_temperature;BMP_pressure;BME280_temperature;BME280_humidity;BME280_pressure;Samples;Min_cycle;Max_cycle;Signal;HPM_P1;HPM_P2
2021/08/01 00:00:57;;;;;;;9.699999;8.8;;;;;;;17.63;100;94459.74;;;;
2021/08/01 00:01:57;;;;;;;9.699999;8.8;;;;;;;17.63;100;94459.74;;;;
2021/08/01 00:02:58;;;;;;;9.699999;8.8;;;;;;;17.63;100;94459.74;;;;
2021/08/01 00:03:58;;;;;;;9.699999;8.8;;;;;;;17.63;100;94459.74;;;;
2021/08/01 00:04:59;;;;;;;9.699999;8.8;;;;;;;17.63;100;94459.74;;;;
2021/08/01 00:06:00;;;;;;;9.699999;8.8;;;;;;;17.63;100;94459.74;;;;
2021/08/01 00:07:01;;;;;;;9.699999;8.8;;;;;;;17.63;100;94459.74;;;;
2021/08/01 00:08:02;;;;;;;9.699999;8.8;;;;;;;17.63;100;94459.74;;;;
2021/08/01 00:09:03;;;;;;;9.699999;8.8;;;;;;;17.63;100;94459.74;;;;
2021/08/01 00:10:03;;;;;;;9.699999;8.8;;;;;;;17.63;100;94459.74;;;;
2021/08/01 00:11:07;;;;;;;9.699999;8.8;;;;;;;17.63;100;94459.74;;;;
2021/08/01 00:12:07;;;;;;;10.85;9.9;;;;;;;17.58;100;94459.8;;;;
2021/08/01 00:13:08;;;;;;;10.85;9.9;;;;;;;17.58;100;94459.8;;;;
2021/08/01 00:14:09;;;;;;;10.85;9.9;;;;;;;17.58;100;94459.8;;;;
2021/08/01 00:15:09;;;;;;;10.85;9.9;;;;;;;17.58;100;94459.8;;;;
2021/08/01 00:16:11;;;;;;;10.85;9.9;;;;;;;17.58;100;94459.8;;;;
2021/08/01 00:17:12;;;;;;;10.85;9.9;;;;;;;17.58;100;94459.8;;;;
2021/08/01 00:18:12;;;;;;;10.85;9.9;;;;;;;17.58;100;94459.8;;;;
2021/08/01 00:19:13;;;;;;;10.85;9.9;;;;;;;17.58;100;94459.8;;;;
2021/08/01 00:20:13;;;;;;;10.85;9.9;;;;;;;17.58;100;94459.8;;;;
2021/08/01 00:21:14;;;;;;;10.85;9.9;;;;;;;17.58;100;94459.8;;;;
2021/08/01 00:22:14;;;;;;;10.85;9.9;;;;;;;17.58;100;94459.8;;;;
2021/08/01 00:23:15;;;;;;;10.85;9.9;;;;;;;17.58;100;94459.8;;;;
2021/08/01 00:24:16;;;;;;;10.85;9.9;;;;;;;17.58;100;94459.8;;;;
2021/08/01 00:25:16;;;;;;;10.85;9.9;;;;;;;17.58;100;94459.8;;;;
2021/08/01 00:26:17;;;;;;;10.85;9.9;;;;;;;17.58;100;94459.8;;;;
2021/08/01 00:27:17;;;;;;;10.85;9.9;;;;;;;17.58;100;94459.8;;;;
2021/08/01 00:28:18;;;;;;;10.85;9.9;;;;;;;17.58;100;94459.8;;;;
2021/08/01 00:29:18;;;;;;;10.85;9.9;;;;;;;17.58;100;94459.8;;;;
2021/08/01 00:30:19;;;;;;;10.85;9.9;;;;;;;17.58;100;94459.8;;;;
2021/08/01 00:31:19;;;;;;;10.85;9.9;;;;;;;17.58;100;94459.8;;;;
2021/08/01 00:32:20;;;;;;;10.85;9.9;;;;;;;17.58;100;94459.8;;;;
2021/08/01 00:33:21;;;;;;;11.95;10.75;;;;;;;17.6;100;94475.33;;;;
2021/08/01 00:34:21;;;;;;;11.95;10.75;;;;;;;17.6;100;94475.33;;;;
2021/08/01 00:35:22;;;;;;;11.95;10.75;;;;;;;17.6;100;94475.33;;;;
2021/08/01 00:36:23;;;;;;;11.95;10.75;;;;;;;17.6;100;94475.33;;;;
2021/08/01 00:37:23;;;;;;;11.95;10.75;;;;;;;17.6;100;94475.33;;;;
2021/08/01 00:38:24;;;;;;;11.95;10.75;;;;;;;17.6;100;94475.33;;;;
2021/08/01 00:39:24;;;;;;;11.95;10.75;;;;;;;17.6;100;94475.33;;;;
2021/08/01 00:40:25;;;;;;;11.95;10.75;;;;;;;17.6;100;94475.33;;;;
2021/08/01 00:41:25;;;;;;;11.95;10.75;;;;;;;17.6;100;94475.33;;;;
2021/08/01 00:42:26;;;;;;;11.95;10.75;;;;;;;17.6;100;94475.33;;;;
2021/08/01 00:43:27;;;;;;;12.2;11;;;;;;;17.63;100;94462.3;;;;
2021/08/01 00:44:28;;;;;;;12.2;11;;;;;;;17.63;100;94462.3;;;;
2021/08/01 00:45:29;;;;;;;12.2;11;;;;;;;17.63;100;94462.3;;;;
2021/08/01 00:46:29;;;;;;;12.2;11;;;;;;;17.63;100;94462.3;;;;
2021/08/01 00:47:30;;;;;;;12.2;11;;;;;;;17.63;100;94462.3;;;;
2021/08/01 00:48:30;;;;;;;12.2;11;;;;;;;17.63;100;94462.3;;;;
2021/08/01 00:49:33;;;;;;;12.2;11;;;;;;;17.63;100;94462.3;;;;
2021/08/01 00:50:34;;;;;;;12.2;11;;;;;;;17.63;100;94462.3;;;;
2021/08/01 00:51:34;;;;;;;12.2;11;;;;;;;17.63;100;94462.3;;;;
2021/08/01 00:52:35;;;;;;;12.2;11;;;;;;;17.63;100;94462.3;;;;
2021/08/01 00:53:37;;;;;;;12.2;11;;;;;;;17.63;100;94462.3;;;;
2021/08/01 00:54:37;;;;;;;10.8;9.5;;;;;;;17.54;100;94462.72;;;;
2021/08/01 00:55:37;;;;;;;10.8;9.5;;;;;;;17.54;100;94462.72;;;;
2021/08/01 00:56:39;;;;;;;10.8;9.5;;;;;;;17.54;100;94462.72;;;;
2021/08/01 00:57:39;;;;;;;10.8;9.5;;;;;;;17.54;100;94462.72;;;;
2021/08/01 00:58:40;;;;;;;10.8;9.5;;;;;;;17.54;100;94462.72;;;;
2021/08/01 00:59:41;;;;;;;10.8;9.5;;;;;;;17.54;100;94462.72;;;;
2021/08/01 01:01:05;;;;;;;10.8;9.5;;;;;;;17.54;100;94462.72;;;;
2021/08/01 01:02:06;;;;;;;10.8;9.5;;;;;;;17.54;100;94462.72;;;;
2021/08/01 01:03:12;;;;;;;10.8;9.5;;;;;;;17.54;100;94462.72;;;;
2021/08/01 01:04:16;;;;;;;10.8;9.5;;;;;;;17.54;100;94462.72;;;;
2021/08/01 01:05:23;;;;;;;10.75;8.849999;;;;;;;17.46;100;94464.89;;;;
2021/08/01 01:06:26;;;;;;;10.75;8.849999;;;;;;;17.46;100;94464.89;;;;
2021/08/01 01:07:40;;;;;;;10.75;8.849999;;;;;;;17.46;100;94464.89;;;;
2021/08/01 01:08:50;;;;;;;10.75;8.849999;;;;;;;17.46;100;94464.89;;;;
2021/08/01 01:09:57;;;;;;;10.75;8.849999;;;;;;;17.46;100;94464.89;;;;
2021/08/01 01:11:05;;;;;;;10.75;8.849999;;;;;;;17.46;100;94464.89;;;;
2021/08/01 01:12:06;;;;;;;10.75;8.849999;;;;;;;17.46;100;94464.89;;;;
2021/08/01 01:13:12;;;;;;;10.75;8.849999;;;;;;;17.46;100;94464.89;;;;
2021/08/01 01:14:15;;;;;;;10.75;8.849999;;;;;;;17.46;100;94464.89;;;;
2021/08/01 01:15:21;;;;;;;10.75;9.550001;;;;;;;17.22;100;94458.59;;;;
2021/08/01 01:16:25;;;;;;;10.75;9.550001;;;;;;;17.22;100;94458.59;;;;
2021/08/01 01:17:29;;;;;;;10.75;9.550001;;;;;;;17.22;100;94458.59;;;;
2021/08/01 01:18:32;;;;;;;10.75;9.550001;;;;;;;17.22;100;94458.59;;;;
2021/08/01 01:19:40;;;;;;;10.75;9.550001;;;;;;;17.22;100;94458.59;;;;
2021/08/01 01:21:00;;;;;;;10.75;9.550001;;;;;;;17.22;100;94458.59;;;;
2021/08/01 01:22:09;;;;;;;10.75;9.550001;;;;;;;17.22;100;94458.59;;;;
2021/08/01 01:23:19;;;;;;;10.75;9.550001;;;;;;;17.22;100;94458.59;;;;
2021/08/01 01:24:35;;;;;;;10.75;9.550001;;;;;;;17.22;100;94458.59;;;;
2021/08/01 01:25:39;;;;;;;10.75;9.550001;;;;;;;17.22;100;94458.59;;;;
2021/08/01 01:26:46;;;;;;;9.200001;8.150002;;;;;;;16.96;100;94428.74;;;;
2021/08/01 01:28:00;;;;;;;9.200001;8.150002;;;;;;;16.96;100;94428.74;;;;
2021/08/01 01:29:09;;;;;;;9.200001;8.150002;;;;;;;16.96;100;94428.74;;;;
2021/08/01 01:30:18;;;;;;;9.200001;8.150002;;;;;;;16.96;100;94428.74;;;;
2021/08/01 01:31:19;;;;;;;9.200001;8.150002;;;;;;;16.96;100;94428.74;;;;
2021/08/01 01:32:28;;;;;;;9.200001;8.150002;;;;;;;16.96;100;94428.74;;;;
2021/08/01 01:33:34;;;;;;;9.200001;8.150002;;;;;;;16.96;100;94428.74;;;;
2021/08/01 01:34:36;;;;;;;9.200001;8.150002;;;;;;;16.96;100;94428.74;;;;
2021/08/01 01:35:47;;;;;;;9.200001;8.150002;;;;;;;16.96;100;94428.74;;;;
2021/08/01 01:36:52;;;;;;;10.55;8.1;;;;;;;16.48;100;94317.68;;;;
2021/08/01 01:37:54;;;;;;;10.55;8.1;;;;;;;16.48;100;94317.68;;;;
2021/08/01 01:38:55;;;;;;;10.55;8.1;;;;;;;16.48;100;94317.68;;;;
2021/08/01 01:39:57;;;;;;;10.55;8.1;;;;;;;16.48;100;94317.68;;;;
2021/08/01 01:40:59;;;;;;;10.55;8.1;;;;;;;16.48;100;94317.68;;;;
2021/08/01 01:42:00;;;;;;;10.55;8.1;;;;;;;16.48;100;94317.68;;;;
2021/08/01 01:43:02;;;;;;;10.55;8.1;;;;;;;16.48;100;94317.68;;;;
2021/08/01 01:44:03;;;;;;;10.55;8.1;;;;;;;16.48;100;94317.68;;;;
2021/08/01 01:45:05;;;;;;;10.55;8.1;;;;;;;16.48;100;94317.68;;;;
2021/08/01 01:46:06;;;;;;;10.55;8.1;;;;;;;16.48;100;94317.68;;;;
2021/08/01 01:47:07;;;;;;;10.7;8.399999;;;;;;;16.06;100;94355.05;;;;
2021/08/01 01:48:08;;;;;;;10.7;8.399999;;;;;;;16.06;100;94355.05;;;;
2021/08/01 01:49:09;;;;;;;10.7;8.399999;;;;;;;16.06;100;94355.05;;;;
2021/08/01 01:50:11;;;;;;;10.7;8.399999;;;;;;;16.06;100;94355.05;;;;
2021/08/01 01:51:12;;;;;;;10.7;8.399999;;;;;;;16.06;100;94355.05;;;;
2021/08/01 01:52:13;;;;;;;10.7;8.399999;;;;;;;16.06;100;94355.05;;;;
2021/08/01 01:53:16;;;;;;;10.7;8.399999;;;;;;;16.06;100;94355.05;;;;
2021/08/01 01:54:17;;;;;;;10.7;8.399999;;;;;;;16.06;100;94355.05;;;;
2021/08/01 01:55:17;;;;;;;10.7;8.399999;;;;;;;16.06;100;94355.05;;;;
2021/08/01 01:56:20;;;;;;;10.7;8.399999;;;;;;;16.06;100;94355.05;;;;
2021/08/01 01:57:21;;;;;;;10.7;8.399999;;;;;;;16.06;100;94355.05;;;;
2021/08/01 01:58:21;;;;;;;8.6;7.05;;;;;;;15.59;100;94313.17;;;;
2021/08/01 01:59:22;;;;;;;8.6;7.05;;;;;;;15.59;100;94313.17;;;;
2021/08/01 02:00:24;;;;;;;8.6;7.05;;;;;;;15.59;100;94313.17;;;;
2021/08/01 02:01:25;;;;;;;8.6;7.05;;;;;;;15.59;100;94313.17;;;;
2021/08/01 02:02:25;;;;;;;8.6;7.05;;;;;;;15.59;100;94313.17;;;;
2021/08/01 02:03:26;;;;;;;8.6;7.05;;;;;;;15.59;100;94313.17;;;;
2021/08/01 02:04:27;;;;;;;8.6;7.05;;;;;;;15.59;100;94313.17;;;;
2021/08/01 02:05:28;;;;;;;8.6;7.05;;;;;;;15.59;100;94313.17;;;;
2021/08/01 02:06:28;;;;;;;8.6;7.05;;;;;;;15.59;100;94313.17;;;;
2021/08/01 02:07:29;;;;;;;8.6;7.05;;;;;;;15.59;100;94313.17;;;;
2021/08/01 02:08:30;;;;;;;9.5;8.499999;;;;;;;15.17;100;94312.09;;;;
2021/08/01 02:09:37;;;;;;;9.5;8.499999;;;;;;;15.17;100;94312.09;;;;
2021/08/01 02:10:46;;;;;;;9.5;8.499999;;;;;;;15.17;100;94312.09;;;;
2021/08/01 02:11:52;;;;;;;9.5;8.499999;;;;;;;15.17;100;94312.09;;;;
2021/08/01 02:13:01;;;;;;;9.5;8.499999;;;;;;;15.17;100;94312.09;;;;
2021/08/01 02:14:04;;;;;;;9.5;8.499999;;;;;;;15.17;100;94312.09;;;;
2021/08/01 02:15:12;;;;;;;9.5;8.499999;;;;;;;15.17;100;94312.09;;;;
2021/08/01 02:16:15;;;;;;;9.5;8.499999;;;;;;;15.17;100;94312.09;;;;
2021/08/01 02:17:18;;;;;;;9.5;8.499999;;;;;;;15.17;100;94312.09;;;;
2021/08/01 02:18:25;;;;;;;9.5;8.499999;;;;;;;15.17;100;94312.09;;;;
2021/08/01 02:19:30;;;;;;;9.5;8.499999;;;;;;;15.17;100;94312.09;;;;
2021/08/01 02:20:34;;;;;;;9.5;8.499999;;;;;;;15.17;100;94312.09;;;;
2021/08/01 02:21:39;;;;;;;9.5;8.499999;;;;;;;15.17;100;94312.09;;;;
2021/08/01 02:22:41;;;;;;;9.5;8.499999;;;;;;;15.17;100;94312.09;;;;
2021/08/01 02:23:42;;;;;;;9.5;8.499999;;;;;;;15.17;100;94312.09;;;;
2021/08/01 02:24:46;;;;;;;9.5;8.499999;;;;;;;15.17;100;94312.09;;;;
2021/08/01 02:25:48;;;;;;;9.5;8.499999;;;;;;;15.17;100;94312.09;;;;
2021/08/01 02:26:50;;;;;;;9.5;8.499999;;;;;;;15.17;100;94312.09;;;;
2021/08/01 02:27:51;;;;;;;9.5;8.499999;;;;;;;15.17;100;94312.09;;;;
2021/08/01 02:28:55;;;;;;;9.5;8.499999;;;;;;;15.17;100;94312.09;;;;
2021/08/01 02:29:56;;;;;;;12.45;11.15;;;;;;;14.9;100;94367.13;;;;
2021/08/01 02:30:59;;;;;;;12.45;11.15;;;;;;;14.9;100;94367.13;;;;
2021/08/01 02:32:01;;;;;;;12.45;11.15;;;;;;;14.9;100;94367.13;;;;
2021/08/01 02:33:02;;;;;;;12.45;11.15;;;;;;;14.9;100;94367.13;;;;
2021/08/01 02:34:05;;;;;;;12.45;11.15;;;;;;;14.9;100;94367.13;;;;
2021/08/01 02:35:06;;;;;;;12.45;11.15;;;;;;;14.9;100;94367.13;;;;
2021/08/01 02:36:09;;;;;;;12.45;11.15;;;;;;;14.9;100;94367.13;;;;
2021/08/01 02:37:13;;;;;;;12.45;11.15;;;;;;;14.9;100;94367.13;;;;
2021/08/01 02:38:15;;;;;;;12.45;11.15;;;;;;;14.9;100;94367.13;;;;
2021/08/01 02:39:16;;;;;;;12.45;11.15;;;;;;;14.9;100;94367.13;;;;
2021/08/01 02:40:17;;;;;;;12.45;11.15;;;;;;;14.9;100;94367.13;;;;
2021/08/01 02:41:19;;;;;;;11.45;10.15;;;;;;;14.89;100;94338.75;;;;
2021/08/01 02:42:25;;;;;;;11.45;10.15;;;;;;;14.89;100;94338.75;;;;
2021/08/01 02:43:26;;;;;;;11.45;10.15;;;;;;;14.89;100;94338.75;;;;
2021/08/01 02:44:29;;;;;;;11.45;10.15;;;;;;;14.89;100;94338.75;;;;
2021/08/01 02:45:35;;;;;;;11.45;10.15;;;;;;;14.89;100;94338.75;;;;
2021/08/01 02:46:38;;;;;;;11.45;10.15;;;;;;;14.89;100;94338.75;;;;
2021/08/01 02:47:41;;;;;;;11.45;10.15;;;;;;;14.89;100;94338.75;;;;
2021/08/01 02:48:42;;;;;;;11.45;10.15;;;;;;;14.89;100;94338.75;;;;
2021/08/01 02:49:43;;;;;;;11.45;10.15;;;;;;;14.89;100;94338.75;;;;
2021/08/01 02:50:45;;;;;;;11.45;10.15;;;;;;;14.89;100;94338.75;;;;
2021/08/01 02:51:52;;;;;;;11.65;10.55;;;;;;;14.87;100;94312.53;;;;
2021/08/01 02:52:55;;;;;;;11.65;10.55;;;;;;;14.87;100;94312.53;;;;
2021/08/01 02:53:58;;;;;;;11.65;10.55;;;;;;;14.87;100;94312.53;;;;
2021/08/01 02:55:01;;;;;;;11.65;10.55;;;;;;;14.87;100;94312.53;;;;
2021/08/01 02:56:04;;;;;;;11.65;10.55;;;;;;;14.87;100;94312.53;;;;
2021/08/01 02:57:08;;;;;;;11.65;10.55;;;;;;;14.87;100;94312.53;;;;
2021/08/01 02:58:12;;;;;;;11.65;10.55;;;;;;;14.87;100;94312.53;;;;
2021/08/01 02:59:12;;;;;;;11.65;10.55;;;;;;;14.87;100;94312.53;;;;
2021/08/01 03:00:14;;;;;;;11.65;10.55;;;;;;;14.87;100;94312.53;;;;
2021/08/01 03:01:16;;;;;;;11.65;10.55;;;;;;;14.87;100;94312.53;;;;
2021/08/01 03:02:16;;;;;;;14.25;10.7;;;;;;;14.77;100;94290.9;;;;
2021/08/01 03:03:17;;;;;;;14.25;10.7;;;;;;;14.77;100;94290.9;;;;
2021/08/01 03:04:20;;;;;;;14.25;10.7;;;;;;;14.77;100;94290.9;;;;
2021/08/01 03:05:23;;;;;;;14.25;10.7;;;;;;;14.77;100;94290.9;;;;
2021/08/01 03:06:24;;;;;;;14.25;10.7;;;;;;;14.77;100;94290.9;;;;
2021/08/01 03:07:24;;;;;;;14.25;10.7;;;;;;;14.77;100;94290.9;;;;
2021/08/01 03:08:26;;;;;;;14.25;10.7;;;;;;;14.77;100;94290.9;;;;
2021/08/01 03:09:26;;;;;;;14.25;10.7;;;;;;;14.77;100;94290.9;;;;
2021/08/01 03:10:27;;;;;;;14.25;10.7;;;;;;;14.77;100;94290.9;;;;
2021/08/01 03:11:27;;;;;;;14.25;10.7;;;;;;;14.77;100;94290.9;;;;
2021/08/01 03:12:31;;;;;;;12;10.85;;;;;;;14.73;100;94302.48;;;;
2021/08/01 03:13:32;;;;;;;12;10.85;;;;;;;14.73;100;94302.48;;;;
2021/08/01 03:14:33;;;;;;;12;10.85;;;;;;;14.73;100;94302.48;;;;
2021/08/01 03:15:33;;;;;;;12;10.85;;;;;;;14.73;100;94302.48;;;;
2021/08/01 03:16:34;;;;;;;12;10.85;;;;;;;14.73;100;94302.48;;;;
2021/08/01 03:17:34;;;;;;;12;10.85;;;;;;;14.73;100;94302.48;;;;
2021/08/01 03:18:35;;;;;;;12;10.85;;;;;;;14.73;100;94302.48;;;;
2021/08/01 03:19:37;;;;;;;12;10.85;;;;;;;14.73;100;94302.48;;;;
2021/08/01 03:20:38;;;;;;;12;10.85;;;;;;;14.73;100;94302.48;;;;
2021/08/01 03:21:39;;;;;;;12;10.85;;;;;;;14.73;100;94302.48;;;;
2021/08/01 03:22:40;;;;;;;12;10.85;;;;;;;14.73;100;94302.48;;;;
2021/08/01 03:23:40;;;;;;;13.65;11.95;;;;;;;14.67;100;94429.96;;;;
2021/08/01 03:24:41;;;;;;;13.65;11.95;;;;;;;14.67;100;94429.96;;;;
2021/08/01 03:25:41;;;;;;;13.65;11.95;;;;;;;14.67;100;94429.96;;;;
2021/08/01 03:26:42;;;;;;;13.65;11.95;;;;;;;14.67;100;94429.96;;;;
2021/08/01 03:27:42;;;;;;;13.65;11.95;;;;;;;14.67;100;94429.96;;;;
2021/08/01 03:28:43;;;;;;;13.65;11.95;;;;;;;14.67;100;94429.96;;;;
2021/08/01 03:29:43;;;;;;;13.65;11.95;;;;;;;14.67;100;94429.96;;;;
2021/08/01 03:30:44;;;;;;;13.65;11.95;;;;;;;14.67;100;94429.96;;;;
2021/08/01 03:31:45;;;;;;;13.65;11.95;;;;;;;14.67;100;94429.96;;;;
2021/08/01 03:32:45;;;;;;;13.65;11.95;;;;;;;14.67;100;94429.96;;;;
2021/08/01 03:33:46;;;;;;;13.65;11.95;;;;;;;14.67;100;94429.96;;;;
2021/08/01 03:34:48;;;;;;;6.25;5.6;;;;;;;14.63;100;94397.1;;;;
2021/08/01 03:35:49;;;;;;;6.25;5.6;;;;;;;14.63;100;94397.1;;;;
2021/08/01 03:36:49;;;;;;;6.25;5.6;;;;;;;14.63;100;94397.1;;;;
2021/08/01 03:37:50;;;;;;;6.25;5.6;;;;;;;14.63;100;94397.1;;;;
2021/08/01 03:38:50;;;;;;;6.25;5.6;;;;;;;14.63;100;94397.1;;;;
2021/08/01 03:39:51;;;;;;;6.25;5.6;;;;;;;14.63;100;94397.1;;;;
2021/08/01 03:40:51;;;;;;;6.25;5.6;;;;;;;14.63;100;94397.1;;;;
2021/08/01 03:41:53;;;;;;;6.25;5.6;;;;;;;14.63;100;94397.1;;;;
2021/08/01 03:42:53;;;;;;;6.25;5.6;;;;;;;14.63;100;94397.1;;;;
2021/08/01 03:43:54;;;;;;;6.25;5.6;;;;;;;14.63;100;94397.1;;;;
2021/08/01 03:44:55;;;;;;;5.349999;4.849999;;;;;;;14.47;100;94427.36;;;;
2021/08/01 03:45:55;;;;;;;5.349999;4.849999;;;;;;;14.47;100;94427.36;;;;
2021/08/01 03:46:56;;;;;;;5.349999;4.849999;;;;;;;14.47;100;94427.36;;;;
2021/08/01 03:47:56;;;;;;;5.349999;4.849999;;;;;;;14.47;100;94427.36;;;;
2021/08/01 03:48:57;;;;;;;5.349999;4.849999;;;;;;;14.47;100;94427.36;;;;
2021/08/01 03:49:58;;;;;;;5.349999;4.849999;;;;;;;14.47;100;94427.36;;;;
2021/08/01 03:50:59;;;;;;;5.349999;4.849999;;;;;;;14.47;100;94427.36;;;;
2021/08/01 03:51:59;;;;;;;5.349999;4.849999;;;;;;;14.47;100;94427.36;;;;
2021/08/01 03:53:00;;;;;;;5.349999;4.849999;;;;;;;14.47;100;94427.36;;;;
2021/08/01 03:54:00;;;;;;;5.349999;4.849999;;;;;;;14.47;100;94427.36;;;;
2021/08/01 03:55:01;;;;;;;5.349999;4.849999;;;;;;;14.47;100;94427.36;;;;
2021/08/01 03:56:02;;;;;;;6.7;5.349999;;;;;;;14.42;100;94405.13;;;;
2021/08/01 03:57:03;;;;;;;6.7;5.349999;;;;;;;14.42;100;94405.13;;;;
2021/08/01 03:58:05;;;;;;;6.7;5.349999;;;;;;;14.42;100;94405.13;;;;
2021/08/01 03:59:05;;;;;;;6.7;5.349999;;;;;;;14.42;100;94405.13;;;;
2021/08/01 04:00:06;;;;;;;6.7;5.349999;;;;;;;14.42;100;94405.13;;;;
2021/08/01 04:01:08;;;;;;;6.7;5.349999;;;;;;;14.42;100;94405.13;;;;
2021/08/01 04:02:08;;;;;;;6.7;5.349999;;;;;;;14.42;100;94405.13;;;;
2021/08/01 04:03:09;;;;;;;6.7;5.349999;;;;;;;14.42;100;94405.13;;;;
2021/08/01 04:04:09;;;;;;;6.7;5.349999;;;;;;;14.42;100;94405.13;;;;
2021/08/01 04:05:10;;;;;;;6.7;5.349999;;;;;;;14.42;100;94405.13;;;;
2021/08/01 04:06:11;;;;;;;5.25;4.3;;;;;;;14.3;100;94448.08;;;;
2021/08/01 04:07:11;;;;;;;5.25;4.3;;;;;;;14.3;100;94448.08;;;;
2021/08/01 04:08:12;;;;;;;5.25;4.3;;;;;;;14.3;100;94448.08;;;;
2021/08/01 04:09:12;;;;;;;5.25;4.3;;;;;;;14.3;100;94448.08;;;;
2021/08/01 04:10:12;;;;;;;5.25;4.3;;;;;;;14.3;100;94448.08;;;;
2021/08/01 04:11:13;;;;;;;5.25;4.3;;;;;;;14.3;100;94448.08;;;;
2021/08/01 04:12:13;;;;;;;5.25;4.3;;;;;;;14.3;100;94448.08;;;;
2021/08/01 04:13:14;;;;;;;5.25;4.3;;;;;;;14.3;100;94448.08;;;;
2021/08/01 04:14:14;;;;;;;5.25;4.3;;;;;;;14.3;100;94448.08;;;;
2021/08/01 04:15:15;;;;;;;5.25;4.3;;;;;;;14.3;100;94448.08;;;;
2021/08/01 04:16:16;;;;;;;5.25;4.3;;;;;;;14.3;100;94448.08;;;;
2021/08/01 04:17:18;;;;;;;4.5;4.100001;;;;;;;14.33;100;94507.29;;;;
2021/08/01 04:18:18;;;;;;;4.5;4.100001;;;;;;;14.33;100;94507.29;;;;
2021/08/01 04:19:19;;;;;;;4.5;4.100001;;;;;;;14.33;100;94507.29;;;;
2021/08/01 04:20:19;;;;;;;4.5;4.100001;;;;;;;14.33;100;94507.29;;;;
2021/08/01 04:21:20;;;;;;;4.5;4.100001;;;;;;;14.33;100;94507.29;;;;
2021/08/01 04:22:21;;;;;;;4.5;4.100001;;;;;;;14.33;100;94507.29;;;;
2021/08/01 04:23:21;;;;;;;4.5;4.100001;;;;;;;14.33;100;94507.29;;;;
2021/08/01 04:24:22;;;;;;;4.5;4.100001;;;;;;;14.33;100;94507.29;;;;
2021/08/01 04:25:22;;;;;;;4.5;4.100001;;;;;;;14.33;100;94507.29;;;;
2021/08/01 04:26:23;;;;;;;4.5;4.100001;;;;;;;14.33;100;94507.29;;;;
2021/08/01 04:27:23;;;;;;;5.5;4.95;;;;;;;14.32;100;94488.97;;;;
2021/08/01 04:28:24;;;;;;;5.5;4.95;;;;;;;14.32;100;94488.97;;;;
2021/08/01 04:29:25;;;;;;;5.5;4.95;;;;;;;14.32;100;94488.97;;;;
2021/08/01 04:30:25;;;;;;;5.5;4.95;;;;;;;14.32;100;94488.97;;;;
2021/08/01 04:31:26;;;;;;;5.5;4.95;;;;;;;14.32;100;94488.97;;;;
2021/08/01 04:32:26;;;;;;;5.5;4.95;;;;;;;14.32;100;94488.97;;;;
2021/08/01 04:33:27;;;;;;;5.5;4.95;;;;;;;14.32;100;94488.97;;;;
2021/08/01 04:34:27;;;;;;;5.5;4.95;;;;;;;14.32;100;94488.97;;;;
2021/08/01 04:35:28;;;;;;;5.5;4.95;;;;;;;14.32;100;94488.97;;;;
2021/08/01 04:36:28;;;;;;;5.5;4.95;;;;;;;14.32;100;94488.97;;;;
2021/08/01 04:37:30;;;;;;;5.5;4.95;;;;;;;14.32;100;94488.97;;;;
2021/08/01 04:38:31;;;;;;;6.750001;6.15;;;;;;;14.37;100;94505.24;;;;
2021/08/01 04:39:31;;;;;;;6.750001;6.15;;;;;;;14.37;100;94505.24;;;;
2021/08/01 04:40:32;;;;;;;6.750001;6.15;;;;;;;14.37;100;94505.24;;;;
2021/08/01 04:41:32;;;;;;;6.750001;6.15;;;;;;;14.37;100;94505.24;;;;
2021/08/01 04:42:33;;;;;;;6.750001;6.15;;;;;;;14.37;100;94505.24;;;;
2021/08/01 04:43:34;;;;;;;6.750001;6.15;;;;;;;14.37;100;94505.24;;;;
2021/08/01 04:44:34;;;;;;;6.750001;6.15;;;;;;;14.37;100;94505.24;;;;
2021/08/01 04:45:34;;;;;;;6.750001;6.15;;;;;;;14.37;100;94505.24;;;;
2021/08/01 04:46:35;;;;;;;6.750001;6.15;;;;;;;14.37;100;94505.24;;;;
2021/08/01 04:47:35;;;;;;;6.750001;6.15;;;;;;;14.37;100;94505.24;;;;
2021/08/01 04:48:36;;;;;;;6.299999;5.7;;;;;;;14.34;100;94487.74;;;;
2021/08/01 04:49:36;;;;;;;6.299999;5.7;;;;;;;14.34;100;94487.74;;;;
2021/08/01 04:50:37;;;;;;;6.299999;5.7;;;;;;;14.34;100;94487.74;;;;
2021/08/01 04:51:37;;;;;;;6.299999;5.7;;;;;;;14.34;100;94487.74;;;;
2021/08/01 04:52:40;;;;;;;6.299999;5.7;;;;;;;14.34;100;94487.74;;;;
2021/08/01 04:53:40;;;;;;;6.299999;5.7;;;;;;;14.34;100;94487.74;;;;
2021/08/01 04:54:41;;;;;;;6.299999;5.7;;;;;;;14.34;100;94487.74;;;;
2021/08/01 04:55:41;;;;;;;6.299999;5.7;;;;;;;14.34;100;94487.74;;;;
2021/08/01 04:56:42;;;;;;;6.299999;5.7;;;;;;;14.34;100;94487.74;;;;
2021/08/01 04:57:43;;;;;;;6.299999;5.7;;;;;;;14.34;100;94487.74;;;;
2021/08/01 04:58:44;;;;;;;6.299999;5.7;;;;;;;14.34;100;94487.74;;;;
2021/08/01 04:59:44;;;;;;;4.849999;4.45;;;;;;;14.42;100;94509.28;;;;
2021/08/01 05:00:45;;;;;;;4.849999;4.45;;;;;;;14.42;100;94509.28;;;;
2021/08/01 05:01:46;;;;;;;4.849999;4.45;;;;;;;14.42;100;94509.28;;;;
2021/08/01 05:02:47;;;;;;;4.849999;4.45;;;;;;;14.42;100;94509.28;;;;
2021/08/01 05:03:47;;;;;;;4.849999;4.45;;;;;;;14.42;100;94509.28;;;;
2021/08/01 05:04:48;;;;;;;4.849999;4.45;;;;;;;14.42;100;94509.28;;;;
2021/08/01 05:05:48;;;;;;;4.849999;4.45;;;;;;;14.42;100;94509.28;;;;
2021/08/01 05:06:49;;;;;;;4.849999;4.45;;;;;;;14.42;100;94509.28;;;;
2021/08/01 05:07:49;;;;;;;4.849999;4.45;;;;;;;14.42;100;94509.28;;;;
2021/08/01 05:08:50;;;;;;;4.849999;4.45;;;;;;;14.42;100;94509.28;;;;
2021/08/01 05:09:50;;;;;;;5.450001;4.05;;;;;;;14.47;100;94531.94;;;;
2021/08/01 05:10:50;;;;;;;5.450001;4.05;;;;;;;14.47;100;94531.94;;;;
2021/08/01 05:11:51;;;;;;;5.450001;4.05;;;;;;;14.47;100;94531.94;;;;
2021/08/01 05:12:51;;;;;;;5.450001;4.05;;;;;;;14.47;100;94531.94;;;;
2021/08/01 05:13:52;;;;;;;5.450001;4.05;;;;;;;14.47;100;94531.94;;;;
2021/08/01 05:14:52;;;;;;;5.450001;4.05;;;;;;;14.47;100;94531.94;;;;
2021/08/01 05:15:53;;;;;;;5.450001;4.05;;;;;;;14.47;100;94531.94;;;;
2021/08/01 05:16:54;;;;;;;5.450001;4.05;;;;;;;14.47;100;94531.94;;;;
2021/08/01 05:17:54;;;;;;;5.450001;4.05;;;;;;;14.47;100;94531.94;;;;
2021/08/01 05:18:54;;;;;;;5.450001;4.05;;;;;;;14.47;100;94531.94;;;;
2021/08/01 05:19:55;;;;;;;5.450001;4.05;;;;;;;14.47;100;94531.94;;;;
2021/08/01 05:20:55;;;;;;;4.5;3.95;;;;;;;14.58;100;94547.52;;;;
2021/08/01 05:21:56;;;;;;;4.5;3.95;;;;;;;14.58;100;94547.52;;;;
2021/08/01 05:22:56;;;;;;;4.5;3.95;;;;;;;14.58;100;94547.52;;;;
2021/08/01 05:23:57;;;;;;;4.5;3.95;;;;;;;14.58;100;94547.52;;;;
2021/08/01 05:24:57;;;;;;;4.5;3.95;;;;;;;14.58;100;94547.52;;;;
2021/08/01 05:25:58;;;;;;;4.5;3.95;;;;;;;14.58;100;94547.52;;;;
2021/08/01 05:26:59;;;;;;;4.5;3.95;;;;;;;14.58;100;94547.52;;;;
2021/08/01 05:27:59;;;;;;;4.5;3.95;;;;;;;14.58;100;94547.52;;;;
2021/08/01 05:28:59;;;;;;;4.5;3.95;;;;;;;14.58;100;94547.52;;;;
2021/08/01 05:30:00;;;;;;;4.5;3.95;;;;;;;14.58;100;94547.52;;;;
2021/08/01 05:31:00;;;;;;;4.5;3.95;;;;;;;14.58;100;94547.52;;;;
2021/08/01 05:32:01;;;;;;;3.95;3.65;;;;;;;14.58;100;94581.48;;;;
2021/08/01 05:33:02;;;;;;;3.95;3.65;;;;;;;14.58;100;94581.48;;;;
2021/08/01 05:34:05;;;;;;;3.95;3.65;;;;;;;14.58;100;94581.48;;;;
2021/08/01 05:35:05;;;;;;;3.95;3.65;;;;;;;14.58;100;94581.48;;;;
2021/08/01 05:36:07;;;;;;;3.95;3.65;;;;;;;14.58;100;94581.48;;;;
2021/08/01 05:37:09;;;;;;;3.95;3.65;;;;;;;14.58;100;94581.48;;;;
2021/08/01 05:38:09;;;;;;;3.95;3.65;;;;;;;14.58;100;94581.48;;;;
2021/08/01 05:39:10;;;;;;;3.95;3.65;;;;;;;14.58;100;94581.48;;;;
2021/08/01 05:40:11;;;;;;;3.95;3.65;;;;;;;14.58;100;94581.48;;;;
2021/08/01 05:41:11;;;;;;;3.95;3.65;;;;;;;14.58;100;94581.48;;;;
2021/08/01 05:42:13;;;;;;;6.949999;4.149999;;;;;;;14.53;100;94597.8;;;;
2021/08/01 05:43:14;;;;;;;6.949999;4.149999;;;;;;;14.53;100;94597.8;;;;
2021/08/01 05:44:14;;;;;;;6.949999;4.149999;;;;;;;14.53;100;94597.8;;;;
2021/08/01 05:45:15;;;;;;;6.949999;4.149999;;;;;;;14.53;100;94597.8;;;;
2021/08/01 05:46:15;;;;;;;6.949999;4.149999;;;;;;;14.53;100;94597.8;;;;
2021/08/01 05:47:16;;;;;;;6.949999;4.149999;;;;;;;14.53;100;94597.8;;;;
2021/08/01 05:48:16;;;;;;;6.949999;4.149999;;;;;;;14.53;100;94597.8;;;;
2021/08/01 05:49:17;;;;;;;6.949999;4.149999;;;;;;;14.53;100;94597.8;;;;
2021/08/01 05:50:17;;;;;;;6.949999;4.149999;;;;;;;14.53;100;94597.8;;;;
2021/08/01 05:51:20;;;;;;;6.949999;4.149999;;;;;;;14.53;100;94597.8;;;;
2021/08/01 05:52:20;;;;;;;6.949999;4.149999;;;;;;;14.53;100;94597.8;;;;
2021/08/01 05:53:21;;;;;;;4.149999;3.85;;;;;;;14.48;100;94600.54;;;;
2021/08/01 05:54:22;;;;;;;4.149999;3.85;;;;;;;14.48;100;94600.54;;;;
2021/08/01 05:55:22;;;;;;;4.149999;3.85;;;;;;;14.48;100;94600.54;;;;
2021/08/01 05:56:23;;;;;;;4.149999;3.85;;;;;;;14.48;100;94600.54;;;;
2021/08/01 05:57:23;;;;;;;4.149999;3.85;;;;;;;14.48;100;94600.54;;;;
2021/08/01 05:58:24;;;;;;;4.149999;3.85;;;;;;;14.48;100;94600.54;;;;
2021/08/01 05:59:24;;;;;;;4.149999;3.85;;;;;;;14.48;100;94600.54;;;;
2021/08/01 06:00:27;;;;;;;4.149999;3.85;;;;;;;14.48;100;94600.54;;;;
2021/08/01 06:01:27;;;;;;;4.149999;3.85;;;;;;;14.48;100;94600.54;;;;
2021/08/01 06:02:28;;;;;;;4.149999;3.85;;;;;;;14.48;100;94600.54;;;;
2021/08/01 06:03:28;;;;;;;4.35;3.900001;;;;;;;14.57;100;94612.47;;;;
2021/08/01 06:04:29;;;;;;;4.35;3.900001;;;;;;;14.57;100;94612.47;;;;
2021/08/01 06:05:29;;;;;;;4.35;3.900001;;;;;;;14.57;100;94612.47;;;;